METAR Data
IDs: Format: Raw Decoded Include TAF

Data at: 1039 UTC 21 Apr 2021

METAR for:EBCI (Charleroi Arpt, WH, BX)
Text:EBCI 211020Z 04006KT 340V070 CAVOK 14/06 Q1018 NOSIG
Temperature: 14.0°C ( 57°F)
Dewpoint: 6.0°C ( 43°F) [RH = 58%]
Pressure (altimeter):30.06 inches Hg (1018.0 mb)
Winds:from the NE (40 degrees) at 7 MPH (6 knots; 3.1 m/s)
Visibility:6 or more sm (10+ km)
Ceiling:ceiling and visibility are OK
Clouds:unknown

TAF for:EBCI (Charleroi Arpt, WH, BX) issued at 0510 UTC 21 Apr 2021
Text:TAF EBCI 210510Z 2106/2212 01005KT 8000 NSC
Forecast period:0600 UTC 21 April 2021 to 1200 UTC 22 April 2021
Forecast type:FROM: standard forecast or significant change
Winds:from the N (10 degrees) at 6 MPH (5 knots; 2.6 m/s)
Visibility: 5 sm ( 8 km)
Clouds:missing
Text:PROB30
Forecast period:0600 to 0700 UTC 21 April 2021
Forecast type:TEMPORARY: The following changes expected for less than half the time period
Visibility: 1.55 sm ( 2.49 km)
Clouds:missing
Weather:BR (mist)
Text:TEMPO 2106/2107 2500 BR
Forecast period:1200 to 1800 UTC 21 April 2021
Forecast type:TEMPORARY: The following changes expected for less than half the time period
Clouds:missing
Weather:SHRA (rain showers)